Ride Results

Lake Manchester (25-06-2016)
Ride distance: 80.0 km

Outcomes - Lake Manchester (25-06-2016)
Division No. of Entries Retired / DNE Completed Withdrawn Ineligible V/O Percentage Completed
HW 6 - 5 - - 1 83.33%
MW 9 - 6 - - 3 66.67%
LW 8 - 6 - 1 1 75.00%
JN 3 - 3 - - - 100.00%
Totals 26 - 20 - 1 5 76.92%
Results - Lake Manchester (25-06-2016)
No. Rider Horse Place Time Leg Speeds Total
Km/Hr
H/R bpm
Heavyweight
245 Maurice Gray Aloha Queen 1 6:22:00 13.6, 12.3, 11.3 12.57 39, 41, 46, 50 (Avg:45)
226 Ron Haigh Bacchante Dreamworks 1 (BC) 6:22:00 12.6, 12.9, 11.9 12.57 37, 41, 53, 46 (Avg:46)
227 Mark Nimon Abbeywood Cochise 3 7:30:00 11.4, 10.5, 9.7 10.67 34, 44, 48, 49 (Avg:47)
224 Rosemary Hull Dee Zyne Wizz Kid 4 8:20:00 10.7, 11.4, 6.8 9.60 29, 38, 41, 38 (Avg:39)
235 Allyson Taylor Zeyna 5 8:33:00 9.4, 9.5, 8.9 9.36 36, 40, 40, 48 (Avg:42)
232 Casey Ward-Jones Redford Lame L2 0:00:00 9.4, 1.9 - 35, 47, 57 (Avg:52)
Middleweight
223 Sasha Laws-King Heathfield's Flashrani 1 (BC) 5:42:00 14.0, 14.7, 13.1 14.04 34, 42, 43, 42 (Avg:42)
229 Adam Garvin Manet Ibn Rashan 2 6:10:00 14.0, 12.0, 12.6 12.97 40, 47, 52, 47 (Avg:48)
241 Fiona Fenech Danic Park Sophira 3 6:44:00 13.1, 11.1, 11.0 11.88 36, 44, 43, 45 (Avg:44)
228 Katharin Bammann Alon Dawn 4 7:30:00 11.4, 10.5, 9.7 10.67 34, 47, 47, 52, 48 (Avg:48)
239 Emma Masters Ballanbrae Art Nouveau 5 7:53:00 11.7, 10.3, 8.0 10.15 38, 44, 49, 56 (Avg:49)
233 Kingsley Watts Maxwell Moonlace 6 8:33:00 9.4, 9.5, 8.9 9.36 34, 44, 46, 47 (Avg:45)
244 Wendy Butler Revere Shalee Lame L2 0:00:00 14.2, 13.0 - 34, 46, 46 (Avg:46)
243 Vanessa Gorecki Cedar Ridge Leeroy Brown Lame L2 0:00:00 11.7, 9.9 - 36, 44, 48 (Avg:46)
234 Angela Ward Al Wathba Ellie May Lame L2 0:00:00 9.4, 1.8 - 38, 45, 49 (Avg:47)
Lightweight
246 Sabrina Stephens Burralga Barbarian 1 (BC) 6:10:00 13.6, 12.4, 12.6 12.97 32, 45, 44, 48 (Avg:45)
249 Shelley Chapman Sahala Astronomer 2 6:54:00 13.4, 11.0, 9.9 11.59 34, 41, 48, 41 (Avg:43)
248 Tahlia Franke Shanelli-Park Phoenix 2 6:54:00 13.4, 11.0, 9.9 11.59 43, 45, 46, 46 (Avg:45)
240 Kelsey Irvine Karma 4 7:13:00 10.9, 11.4, 10.8 11.09 48, 45, 49, 52 (Avg:48)
238 Jocelyn Barnes Trinity 5 7:15:00 10.7, 11.0, 11.4 11.03 33, 37, 44, 47 (Avg:42)
230 Carolyn Lamb Chesney Eyes of Fire 6 7:33:00 11.1, 10.4, 9.9 10.60 46, 42, 58, 46 (Avg:48)
247 Christal Rizk The Terminator Lame L3 0:00:00 11.8, 10.1, 5.6 - 31, 46, 53, 56 (Avg:51)
236 Kate Appleby Steel Poppy Midnight Rum Out of Time P/R 0:00:00 - - 45
Junior
237 Louis Ryan Kholonial Amigo 1 (BC) 6:08:00 14.1, 13.1, 11.4 13.04 35, 38, 48, 45 (Avg:43)
242 Emma Dimech Abbeywood Where It's At 2 6:44:00 13.1, 11.1, 11.0 11.88 36, 38, 50, 46 (Avg:44)
231 Mikaela Lamb Ausden Illusion 3 7:33:00 11.1, 10.4, 9.9 10.60 33, 47, 42, 52 (Avg:47)